METAR Data
IDs: Format: Raw Decoded Include TAF

Data at: 2238 UTC 02 Aug 2021

EYKA 022220Z AUTO 21007KT 170V230 9999 NCD 15/11 Q1007